Crozet, Virginia
Current Conditions -  °F | °C
As of 8:55 PM on Sunday 21 Dec 2014 (Local Time) from KW13 Reporting Station
Clear Clear  
Wind Chill: 28°   Ceiling: Unl
Heat Index: 32°   Visibility: 10mi
Dew Point: 26°   Wind: 5mph
Humidity: 77%   Direction: 130°SE
Pressure: 30.24"   Gusts: NA
Location:  38.07°N, 78.7°W
Report Text: KW13 220155Z AUTO 13004KT 10SM CLR 00/M03 A3024 RMK AO1 T00011035
Loading
Personal Weather Stations






























Interactive Weather Map New forecast layout! Learn more

10-Day Weather Forecast

Advertisements
Track Severe Weather on mobile